createdAt,value
2022-10-11T00:00:39.778Z,99.90
2022-10-11T00:03:07.442Z,99.90
2022-10-11T00:05:36.064Z,99.90
2022-10-11T00:08:05.835Z,99.90
2022-10-11T00:10:34.513Z,99.90
2022-10-11T00:13:02.389Z,99.90
2022-10-11T00:15:30.051Z,99.90
2022-10-11T00:18:00.147Z,99.90
2022-10-11T00:20:29.783Z,99.90
2022-10-11T00:22:57.270Z,99.90
2022-10-11T00:25:24.738Z,99.90
2022-10-11T00:27:52.261Z,99.90
2022-10-11T00:30:19.830Z,99.90
2022-10-11T00:32:47.330Z,99.90
2022-10-11T00:35:14.905Z,99.90
2022-10-11T00:37:42.533Z,99.90
2022-10-11T00:40:17.051Z,99.90
2022-10-11T00:42:44.832Z,99.90
2022-10-11T00:46:01.208Z,99.90
2022-10-11T00:48:46.657Z,99.90
2022-10-11T00:51:29.852Z,99.90
2022-10-11T00:53:57.436Z,99.90
2022-10-11T00:56:32.760Z,99.90
2022-10-11T00:59:04.896Z,99.90
2022-10-11T01:01:32.920Z,99.90
2022-10-11T01:04:02.624Z,99.90
2022-10-11T01:06:30.253Z,99.90
2022-10-11T01:08:58.105Z,99.90
2022-10-11T01:11:28.391Z,99.90
2022-10-11T01:14:08.015Z,99.90
2022-10-11T01:17:01.926Z,99.90
2022-10-11T01:19:41.224Z,99.90
2022-10-11T01:22:52.193Z,99.90
2022-10-11T01:25:25.223Z,99.90
2022-10-11T01:28:30.782Z,99.90
2022-10-11T01:31:08.015Z,99.90
2022-10-11T01:33:59.313Z,99.90
2022-10-11T01:36:43.220Z,99.90
2022-10-11T01:39:26.714Z,99.90
2022-10-11T01:41:56.759Z,99.90
2022-10-11T01:44:26.994Z,99.90
2022-10-11T01:46:54.748Z,99.90
2022-10-11T01:49:22.580Z,99.90
2022-10-11T01:51:54.907Z,99.90
2022-10-11T01:55:08.565Z,99.90
2022-10-11T01:58:08.349Z,99.90
2022-10-11T02:01:08.238Z,99.90
2022-10-11T02:03:57.238Z,99.90
2022-10-11T02:06:59.044Z,99.90
2022-10-11T02:09:41.623Z,99.90
2022-10-11T02:12:13.537Z,99.90
2022-10-11T02:14:46.392Z,99.90
2022-10-11T02:17:19.147Z,99.90
2022-10-11T02:19:52.078Z,99.90
2022-10-11T02:22:32.340Z,99.90
2022-10-11T02:25:03.882Z,99.90
2022-10-11T02:27:37.420Z,99.90
2022-10-11T02:30:10.387Z,99.90
2022-10-11T02:32:42.333Z,99.90
2022-10-11T02:35:11.137Z,99.90
2022-10-11T02:37:38.605Z,99.90
2022-10-11T02:40:16.821Z,99.90
2022-10-11T02:42:59.795Z,99.90
2022-10-11T02:45:45.568Z,99.90
2022-10-11T02:48:13.703Z,99.90
2022-10-11T02:50:42.650Z,99.90
2022-10-11T02:53:10.533Z,99.90
2022-10-11T02:55:38.052Z,99.90
2022-10-11T02:58:05.532Z,99.90
2022-10-11T03:00:32.985Z,99.90
2022-10-11T03:03:00.542Z,99.90
2022-10-11T03:05:28.009Z,99.90
2022-10-11T03:07:55.486Z,99.90
2022-10-11T03:10:22.926Z,99.90
2022-10-11T03:12:50.811Z,99.90
2022-10-11T03:15:18.257Z,99.90
2022-10-11T03:17:45.739Z,99.90
2022-10-11T03:20:13.187Z,99.90
2022-10-11T03:22:41.003Z,99.90
2022-10-11T03:25:09.150Z,99.90
2022-10-11T03:27:36.718Z,99.90
2022-10-11T03:30:05.558Z,99.90
2022-10-11T03:32:33.050Z,99.90
2022-10-11T03:35:00.555Z,99.90
2022-10-11T03:37:28.102Z,99.90
2022-10-11T03:39:55.610Z,99.90
2022-10-11T03:42:23.125Z,99.90
2022-10-11T03:44:52.129Z,99.90
2022-10-11T03:47:20.128Z,99.90
2022-10-11T03:49:47.616Z,99.90
2022-10-11T03:52:15.065Z,99.90
2022-10-11T03:54:42.761Z,99.90
2022-10-11T03:57:10.274Z,99.90
2022-10-11T03:59:37.712Z,99.90
2022-10-11T04:02:05.295Z,99.90
2022-10-11T04:04:33.034Z,99.90
2022-10-11T04:07:00.564Z,99.90
2022-10-11T04:09:28.234Z,99.90
2022-10-11T04:11:55.720Z,99.90
2022-10-11T04:14:24.626Z,99.90
2022-10-11T04:16:52.069Z,99.90
2022-10-11T04:19:19.546Z,99.90
2022-10-11T04:21:47.072Z,99.90
2022-10-11T04:24:14.562Z,99.90
2022-10-11T04:26:42.041Z,99.90
2022-10-11T04:29:09.481Z,99.90
2022-10-11T04:31:36.963Z,99.90
2022-10-11T04:34:04.457Z,99.90
2022-10-11T04:36:34.099Z,99.90
2022-10-11T04:39:02.060Z,99.90
2022-10-11T04:41:29.705Z,99.90
2022-10-11T04:43:57.738Z,99.90
2022-10-11T04:46:25.385Z,99.90
2022-10-11T04:48:53.260Z,99.90
2022-10-11T04:51:21.289Z,99.90
2022-10-11T04:53:49.862Z,99.90
2022-10-11T04:56:18.851Z,99.90
2022-10-11T04:58:49.538Z,99.90
2022-10-11T05:01:17.065Z,99.90
2022-10-11T05:03:44.586Z,99.90
2022-10-11T05:06:12.634Z,99.90
2022-10-11T05:08:40.485Z,99.90
2022-10-11T05:11:15.542Z,99.90
2022-10-11T05:13:44.797Z,99.90
2022-10-11T05:16:13.476Z,99.90
2022-10-11T05:18:41.672Z,99.90
2022-10-11T05:21:22.135Z,99.90
2022-10-11T05:23:51.983Z,99.90
2022-10-11T05:26:20.650Z,99.90
2022-10-11T05:28:48.690Z,99.90
2022-10-11T05:31:17.488Z,99.90
2022-10-11T05:33:45.286Z,99.90
2022-10-11T05:36:13.547Z,99.90
2022-10-11T05:38:41.633Z,99.90
2022-10-11T05:41:11.114Z,99.90
2022-10-11T05:43:38.661Z,99.90
2022-10-11T05:46:07.014Z,99.90
2022-10-11T05:48:35.250Z,99.90
2022-10-11T05:51:10.086Z,99.90
2022-10-11T05:53:38.908Z,99.90
2022-10-11T05:56:18.028Z,99.90
2022-10-11T05:58:45.498Z,99.90
2022-10-11T06:01:27.372Z,99.90
2022-10-11T06:03:56.056Z,99.90
2022-10-11T06:06:23.673Z,99.90
2022-10-11T06:08:51.198Z,99.90
2022-10-11T06:11:27.047Z,99.90
2022-10-11T06:13:58.195Z,99.90
2022-10-11T06:16:26.274Z,99.90
2022-10-11T06:18:58.165Z,99.90
2022-10-11T06:21:25.982Z,99.90
2022-10-11T06:23:59.873Z,99.90
2022-10-11T06:26:28.085Z,99.90
2022-10-11T06:28:55.707Z,99.90
2022-10-11T06:31:23.403Z,99.90
2022-10-11T06:33:50.954Z,99.90
2022-10-11T06:36:18.545Z,99.90
2022-10-11T06:38:46.216Z,99.90
2022-10-11T06:41:18.125Z,99.90
2022-10-11T06:43:46.669Z,99.90
2022-10-11T06:46:14.125Z,99.90
2022-10-11T06:48:46.381Z,99.90
2022-10-11T06:51:16.605Z,99.90
2022-10-11T06:53:44.667Z,99.90
2022-10-11T06:56:13.287Z,99.90
2022-10-11T06:58:41.082Z,99.90
2022-10-11T07:01:18.739Z,99.90
2022-10-11T07:03:46.638Z,99.90
2022-10-11T07:06:22.813Z,99.90
2022-10-11T07:08:50.594Z,99.90
2022-10-11T07:11:21.572Z,99.90
2022-10-11T07:13:58.512Z,99.90
2022-10-11T07:16:27.480Z,99.90
2022-10-11T07:19:01.230Z,99.90
2022-10-11T07:21:30.851Z,99.90
2022-10-11T07:23:58.608Z,99.90
2022-10-11T07:26:26.652Z,99.90
2022-10-11T07:28:54.300Z,99.90
2022-10-11T07:31:25.321Z,99.90
2022-10-11T07:33:53.649Z,99.90
2022-10-11T07:36:23.416Z,99.90
2022-10-11T07:38:51.128Z,99.90
2022-10-11T07:41:19.082Z,99.90
2022-10-11T07:43:48.158Z,99.90
2022-10-11T07:46:17.575Z,99.90
2022-10-11T07:48:45.333Z,99.90
2022-10-11T07:51:22.138Z,99.90
2022-10-11T07:53:53.726Z,99.90
2022-10-11T07:56:27.565Z,99.90
2022-10-11T07:58:58.673Z,99.90
2022-10-11T08:01:28.191Z,99.90
2022-10-11T08:03:59.741Z,99.90
2022-10-11T08:06:32.784Z,99.90
2022-10-11T08:09:01.976Z,99.90
2022-10-11T08:11:36.143Z,99.90
2022-10-11T08:14:08.963Z,99.90
2022-10-11T08:16:39.139Z,99.90
2022-10-11T08:19:07.794Z,99.90
2022-10-11T08:21:35.471Z,99.90
2022-10-11T08:24:05.606Z,99.90
2022-10-11T08:26:35.408Z,99.90
2022-10-11T08:29:04.122Z,99.90
2022-10-11T08:31:33.527Z,99.90
2022-10-11T08:34:01.202Z,99.90
2022-10-11T08:36:28.673Z,99.90
2022-10-11T08:38:56.202Z,99.90
2022-10-11T08:41:49.609Z,99.90
2022-10-11T08:45:10.690Z,99.90
2022-10-11T08:47:40.438Z,99.90
2022-10-11T08:50:20.690Z,99.90
2022-10-11T08:53:13.262Z,99.90
2022-10-11T08:55:49.296Z,99.90
2022-10-11T08:58:24.630Z,99.90
2022-10-11T09:00:55.542Z,99.90
2022-10-11T09:03:39.249Z,99.90
2022-10-11T09:06:53.139Z,99.90
2022-10-11T09:09:51.907Z,99.90
2022-10-11T09:12:48.315Z,99.90
2022-10-11T09:15:33.666Z,99.90
2022-10-11T09:18:56.403Z,99.90
2022-10-11T09:21:37.184Z,99.90
2022-10-11T09:24:22.533Z,99.90
2022-10-11T09:27:57.835Z,99.90
2022-10-11T09:30:21.553Z,99.90
2022-10-11T09:33:20.164Z,99.90
2022-10-11T09:35:52.476Z,99.90
2022-10-11T09:38:41.329Z,99.90
2022-10-11T09:41:31.753Z,99.90
2022-10-11T09:43:59.287Z,99.90
2022-10-11T09:46:36.010Z,99.90
2022-10-11T09:49:09.384Z,99.90
2022-10-11T09:51:38.276Z,99.90
2022-10-11T09:54:07.132Z,99.90
2022-10-11T09:56:41.986Z,99.90
2022-10-11T09:59:30.768Z,99.90
2022-10-11T10:02:22.047Z,99.90
2022-10-11T10:05:04.300Z,99.90
2022-10-11T10:07:35.251Z,99.90
2022-10-11T10:10:36.101Z,99.90
2022-10-11T10:13:06.281Z,99.90
2022-10-11T10:15:38.199Z,99.90
2022-10-11T10:18:06.737Z,99.90
2022-10-11T10:20:36.606Z,99.90
2022-10-11T10:23:30.972Z,99.90
2022-10-11T10:26:31.905Z,99.90
2022-10-11T10:29:11.167Z,99.90
2022-10-11T10:32:13.435Z,99.90
2022-10-11T10:35:24.364Z,99.90
2022-10-11T10:38:01.345Z,99.90
2022-10-11T10:40:52.760Z,99.90
2022-10-11T10:43:25.521Z,99.90
2022-10-11T10:46:24.468Z,99.90
2022-10-11T10:49:53.699Z,99.90
2022-10-11T10:52:47.937Z,99.90
2022-10-11T10:55:43.123Z,99.90
2022-10-11T10:58:57.285Z,99.90
2022-10-11T11:01:30.666Z,99.90
2022-10-11T11:04:28.448Z,99.90
2022-10-11T11:07:24.932Z,99.90
2022-10-11T11:10:07.477Z,99.90
2022-10-11T11:13:04.802Z,99.90
2022-10-11T11:15:41.270Z,99.90
2022-10-11T11:18:59.329Z,99.90
2022-10-11T11:21:32.854Z,99.90
2022-10-11T11:24:35.352Z,99.90
2022-10-11T11:28:12.319Z,99.90
2022-10-11T11:31:12.205Z,99.90
2022-10-11T11:33:57.965Z,99.90
2022-10-11T11:37:01.219Z,99.90
2022-10-11T11:39:45.947Z,99.90
2022-10-11T11:42:27.196Z,99.90
2022-10-11T11:44:54.734Z,99.90
2022-10-11T11:47:38.438Z,99.90
2022-10-11T11:50:24.608Z,99.90
2022-10-11T11:53:07.859Z,99.90
2022-10-11T11:55:49.443Z,99.90
2022-10-11T11:58:50.639Z,99.90
2022-10-11T12:01:31.585Z,99.90
2022-10-11T12:04:07.573Z,99.90
2022-10-11T12:06:47.771Z,99.90
2022-10-11T12:09:32.573Z,99.90
2022-10-11T12:12:05.122Z,99.90
2022-10-11T12:14:42.847Z,98.30
2022-10-11T12:17:23.584Z,96.80
2022-10-11T12:20:23.753Z,97.70
2022-10-11T12:22:53.959Z,96.10
2022-10-11T12:25:28.653Z,93.90
2022-10-11T12:28:02.771Z,90.90
2022-10-11T12:30:48.046Z,88.60
2022-10-11T12:33:32.848Z,85.90
2022-10-11T12:36:32.578Z,87.50
2022-10-11T12:39:18.671Z,91.00
2022-10-11T12:41:51.683Z,92.10
2022-10-11T12:44:19.066Z,93.50
2022-10-11T12:46:54.876Z,94.80
2022-10-11T12:49:25.159Z,97.00
2022-10-11T12:52:25.460Z,98.20
2022-10-11T12:55:23.680Z,99.70
2022-10-11T12:58:26.793Z,97.40
2022-10-11T13:00:58.041Z,94.40
2022-10-11T13:03:43.679Z,93.90
2022-10-11T13:06:25.783Z,96.70
2022-10-11T13:09:24.238Z,96.80
2022-10-11T13:12:07.556Z,92.20
2022-10-11T13:14:58.541Z,91.70
2022-10-11T13:17:35.901Z,92.90
2022-10-11T13:20:18.430Z,93.50
2022-10-11T13:22:53.315Z,96.60
2022-10-11T13:25:25.478Z,97.70
2022-10-11T13:27:55.773Z,98.60
2022-10-11T13:30:31.145Z,98.10
2022-10-11T13:33:00.533Z,99.90
2022-10-11T13:35:38.344Z,98.60
2022-10-11T13:38:09.448Z,95.70
2022-10-11T13:40:38.029Z,92.30
2022-10-11T13:43:06.545Z,81.90
2022-10-11T13:45:37.154Z,73.30
2022-10-11T13:48:05.197Z,74.20
2022-10-11T13:50:34.700Z,77.10
2022-10-11T13:53:12.382Z,79.90
2022-10-11T13:55:42.894Z,83.00
2022-10-11T13:58:18.857Z,87.00
2022-10-11T14:01:01.861Z,90.40
2022-10-11T14:03:47.104Z,92.90
2022-10-11T14:06:15.354Z,91.50
2022-10-11T14:08:42.755Z,91.60
2022-10-11T14:11:13.372Z,92.20
2022-10-11T14:13:50.198Z,94.50
2022-10-11T14:16:20.685Z,95.30
2022-10-11T14:18:50.331Z,96.30
2022-10-11T14:21:30.651Z,98.00
2022-10-11T14:24:05.462Z,97.70
2022-10-11T14:26:42.833Z,95.20
2022-10-11T14:29:26.737Z,94.00
2022-10-11T14:32:17.116Z,89.00
2022-10-11T14:34:48.054Z,90.00
2022-10-11T14:37:19.682Z,86.70
2022-10-11T14:39:51.056Z,81.00
2022-10-11T14:42:19.723Z,80.70
2022-10-11T14:44:47.305Z,81.70
2022-10-11T14:47:16.987Z,80.20
2022-10-11T14:49:44.652Z,81.70
2022-10-11T14:52:14.238Z,77.60
2022-10-11T14:54:41.914Z,79.40
2022-10-11T14:57:13.025Z,80.90
2022-10-11T14:59:40.617Z,80.00
2022-10-11T15:02:11.929Z,81.80
2022-10-11T15:04:39.500Z,83.80
2022-10-11T15:07:07.419Z,83.80
2022-10-11T15:09:34.870Z,82.30
2022-10-11T15:12:02.323Z,82.10
2022-10-11T15:14:29.867Z,81.30
2022-10-11T15:16:57.419Z,85.00
2022-10-11T15:19:25.946Z,87.40
2022-10-11T15:21:53.690Z,86.30
2022-10-11T15:24:21.313Z,86.10
2022-10-11T15:26:49.704Z,86.10
2022-10-11T15:29:22.153Z,88.20
2022-10-11T15:31:49.716Z,87.00
2022-10-11T15:34:17.812Z,87.50
2022-10-11T15:36:45.701Z,87.80
2022-10-11T15:39:32.706Z,89.40
2022-10-11T15:42:00.769Z,91.10
2022-10-11T15:44:28.417Z,92.50
2022-10-11T15:46:56.052Z,93.20
2022-10-11T15:49:23.515Z,94.00
2022-10-11T15:51:50.951Z,96.00
2022-10-11T15:54:18.537Z,98.30
2022-10-11T15:56:46.035Z,99.90
2022-10-11T15:59:13.522Z,99.90
2022-10-11T16:01:41.130Z,99.90
2022-10-11T16:04:09.699Z,99.90
2022-10-11T16:06:37.184Z,99.90
2022-10-11T16:09:04.775Z,99.90
2022-10-11T16:11:32.278Z,99.90
2022-10-11T16:13:59.809Z,99.90
2022-10-11T16:16:27.320Z,99.90
2022-10-11T16:18:54.903Z,99.90
2022-10-11T16:21:23.810Z,99.90
2022-10-11T16:23:51.273Z,99.90
2022-10-11T16:26:18.919Z,99.90
2022-10-11T16:28:48.216Z,99.90
2022-10-11T16:31:18.529Z,99.90
2022-10-11T16:33:46.422Z,99.90
2022-10-11T16:36:40.332Z,99.90
2022-10-11T16:39:16.021Z,99.90
2022-10-11T16:41:44.862Z,99.90
2022-10-11T16:44:19.272Z,99.90
2022-10-11T16:46:48.663Z,99.90
2022-10-11T16:49:18.263Z,99.90
2022-10-11T16:51:45.985Z,99.90
2022-10-11T16:54:16.552Z,99.90
2022-10-11T16:56:45.634Z,99.90
2022-10-11T16:59:13.489Z,99.90
2022-10-11T17:01:41.104Z,99.90
2022-10-11T17:04:09.517Z,99.90
2022-10-11T17:06:37.113Z,99.90
2022-10-11T17:09:05.061Z,99.90
2022-10-11T17:11:32.859Z,99.90
2022-10-11T17:14:01.801Z,99.90
2022-10-11T17:16:29.411Z,99.90
2022-10-11T17:18:56.930Z,99.90
2022-10-11T17:21:24.758Z,99.90
2022-10-11T17:23:52.341Z,99.90
2022-10-11T17:26:27.354Z,99.90
2022-10-11T17:29:00.510Z,99.90
2022-10-11T17:31:29.880Z,99.90
2022-10-11T17:34:01.177Z,99.90
2022-10-11T17:36:34.750Z,99.90
2022-10-11T17:39:12.210Z,99.90
2022-10-11T17:41:39.678Z,99.90
2022-10-11T17:44:07.268Z,99.90
2022-10-11T17:46:35.291Z,99.90
2022-10-11T17:49:08.133Z,99.90
2022-10-11T17:51:37.103Z,99.90
2022-10-11T17:54:06.388Z,99.90
2022-10-11T17:56:37.695Z,99.90
2022-10-11T17:59:06.850Z,99.90
2022-10-11T18:01:34.530Z,99.90
2022-10-11T18:04:05.074Z,99.90
2022-10-11T18:06:39.386Z,99.90
2022-10-11T18:09:07.213Z,99.90
2022-10-11T18:11:35.253Z,99.90
2022-10-11T18:14:03.065Z,99.90
2022-10-11T18:16:32.415Z,99.90
2022-10-11T18:19:02.537Z,99.90
2022-10-11T18:21:34.231Z,99.90
2022-10-11T18:24:11.042Z,99.90
2022-10-11T18:26:39.020Z,99.90
2022-10-11T18:29:06.598Z,99.90
2022-10-11T18:31:35.451Z,99.90
2022-10-11T18:34:04.825Z,99.90
2022-10-11T18:36:33.206Z,99.90
2022-10-11T18:39:05.124Z,99.90
2022-10-11T18:41:34.122Z,99.90
2022-10-11T18:44:07.188Z,99.90
2022-10-11T18:46:35.674Z,99.90
2022-10-11T18:49:03.993Z,99.90
2022-10-11T18:51:38.101Z,99.90
2022-10-11T18:54:07.141Z,99.90
2022-10-11T18:56:37.181Z,99.90
2022-10-11T18:59:05.811Z,99.90
2022-10-11T19:01:38.412Z,99.90
2022-10-11T19:04:09.347Z,99.90
2022-10-11T19:06:43.583Z,99.90
2022-10-11T19:09:15.290Z,99.90
2022-10-11T19:11:42.808Z,99.90
2022-10-11T19:14:14.940Z,99.90
2022-10-11T19:16:49.345Z,99.90
2022-10-11T19:19:19.455Z,99.90
2022-10-11T19:21:48.888Z,99.90
2022-10-11T19:24:21.292Z,99.90
2022-10-11T19:26:49.283Z,99.90
2022-10-11T19:29:20.794Z,99.90
2022-10-11T19:31:54.524Z,99.90
2022-10-11T19:34:23.069Z,99.90
2022-10-11T19:36:51.047Z,99.90
2022-10-11T19:39:20.037Z,99.90
2022-10-11T19:41:48.442Z,99.90
2022-10-11T19:44:17.028Z,99.90
2022-10-11T19:46:51.628Z,99.90
2022-10-11T19:49:25.923Z,99.90
2022-10-11T19:51:55.551Z,99.90
2022-10-11T19:54:23.542Z,99.90
2022-10-11T19:56:51.456Z,99.90
2022-10-11T19:59:19.070Z,99.90
2022-10-11T20:01:51.956Z,99.90
2022-10-11T20:07:09.219Z,99.90
2022-10-11T20:09:36.880Z,99.90
2022-10-11T20:12:04.587Z,99.90
2022-10-11T20:14:32.226Z,99.90
2022-10-11T20:16:59.790Z,99.90
2022-10-11T20:19:31.021Z,99.90
2022-10-11T20:22:00.968Z,99.90
2022-10-11T20:24:33.135Z,99.90
2022-10-11T20:27:03.648Z,99.90
2022-10-11T20:29:31.485Z,99.90
2022-10-11T20:31:59.138Z,99.90
2022-10-11T20:34:27.856Z,99.90
2022-10-11T20:36:55.466Z,99.90
2022-10-11T20:39:23.870Z,99.90
2022-10-11T20:41:51.396Z,99.90
2022-10-11T20:44:18.906Z,99.90
2022-10-11T20:46:46.373Z,99.90
2022-10-11T20:49:13.868Z,99.90
2022-10-11T20:51:42.635Z,99.90
2022-10-11T20:54:11.408Z,99.90
2022-10-11T20:56:39.950Z,99.90
2022-10-11T20:59:07.933Z,99.90
2022-10-11T21:01:41.009Z,99.90
2022-10-11T21:04:18.992Z,99.90
2022-10-11T21:06:48.262Z,99.90
2022-10-11T21:09:17.250Z,99.90
2022-10-11T21:11:45.207Z,99.90
2022-10-11T21:14:12.826Z,99.90
2022-10-11T21:16:40.331Z,99.90
2022-10-11T21:19:07.799Z,99.90
2022-10-11T21:21:35.304Z,99.90
2022-10-11T21:24:03.240Z,99.90
2022-10-11T21:26:31.205Z,99.90
2022-10-11T21:29:04.188Z,99.90
2022-10-11T21:31:34.351Z,99.90
2022-10-11T21:34:05.213Z,99.90
2022-10-11T21:36:32.746Z,99.90
2022-10-11T21:39:00.223Z,99.90
2022-10-11T21:41:30.337Z,99.90
2022-10-11T21:43:58.337Z,99.90
2022-10-11T21:49:20.456Z,99.90
2022-10-11T21:51:47.912Z,99.90
2022-10-11T21:54:15.541Z,99.90
2022-10-11T21:56:43.072Z,99.90
2022-10-11T21:59:12.540Z,99.90
2022-10-11T22:01:42.073Z,99.90
2022-10-11T22:04:11.211Z,99.90
2022-10-11T22:06:39.915Z,99.90
2022-10-11T22:09:08.741Z,99.90
2022-10-11T22:11:36.410Z,99.90
2022-10-11T22:14:04.410Z,99.90
2022-10-11T22:16:34.659Z,99.90
2022-10-11T22:19:02.496Z,99.90
2022-10-11T22:21:30.485Z,99.90
2022-10-11T22:23:57.936Z,99.90
2022-10-11T22:26:32.375Z,99.90
2022-10-11T22:29:00.794Z,99.90
2022-10-11T22:31:29.731Z,99.90
2022-10-11T22:34:01.289Z,99.90
2022-10-11T22:36:33.844Z,99.90
2022-10-11T22:39:01.479Z,99.90
2022-10-11T22:41:28.976Z,99.90
2022-10-11T22:43:56.662Z,99.90
2022-10-11T22:46:24.163Z,99.90
2022-10-11T22:48:51.645Z,99.90
2022-10-11T22:51:19.519Z,99.90
2022-10-11T22:53:47.071Z,99.90
2022-10-11T22:56:14.623Z,99.90
2022-10-11T22:58:42.141Z,99.90
2022-10-11T23:01:16.290Z,99.90
2022-10-11T23:03:47.266Z,99.90
2022-10-11T23:06:14.826Z,99.90
2022-10-11T23:08:44.399Z,99.90
2022-10-11T23:11:12.872Z,99.90
2022-10-11T23:13:40.451Z,99.90
2022-10-11T23:16:11.267Z,99.90
2022-10-11T23:18:39.602Z,99.90
2022-10-11T23:21:07.750Z,99.90
2022-10-11T23:23:35.359Z,99.90
2022-10-11T23:26:13.515Z,99.90
2022-10-11T23:28:42.626Z,99.90
2022-10-11T23:31:18.807Z,99.90
2022-10-11T23:33:47.488Z,99.90
2022-10-11T23:36:20.260Z,99.90
2022-10-11T23:38:59.217Z,99.90
2022-10-11T23:41:29.455Z,99.90
2022-10-11T23:43:57.466Z,99.90
2022-10-11T23:46:25.742Z,99.90
2022-10-11T23:48:53.368Z,99.90
2022-10-11T23:51:20.997Z,99.90
2022-10-11T23:53:48.546Z,99.90
2022-10-11T23:56:16.092Z,99.90
2022-10-11T23:58:43.644Z,99.90
